»·PEaware :: N909CH KVNY-KSNA

N909CH :: KVNY-KSNA

FLIGHT INFORMATION

Flight Status: Arrived
Operator: Privately registered:
United States
More flights under this callsign
Pilot: Jeremy H. (10741)
Aircraft: SOCATA TBM-900
(TBM9)
More flights by this aircraft type
Origin: KVNY Van Nuys
United States
Destination: KSNA John Wayne-Orange Co
United States
More flights between these airports :: More routes between these airports
Route: +TWINE V518 KIMMO V459 SLI
File this flight plan on PilotEdge
Remarks: TEC route BURP21
Altitude:
(Current/Filed)
9,000ft
Speed:
(Current/Filed)
250kts
Departed: 25-Feb-19 06:21 PM
Arrived: 25-Feb-19 06:49 PM
Distance/Time
Traveled:
45nm/0:28
Distance/Time
To Go:
Arrived

Flight Plot

Page will automatically refresh every two minutes.


Map Options




Map Legend


Flown Route
Filed Route
Departure Airport
Arrival Airport
Navaid (VOR, NDB)
Fix

Horizontal Profiles

Position Reports

Time Latitude Longitude Heading Altitude Ground
Speed
25-Feb-19 17:58 34.205040 -118.487727 273 805ft 0kts
25-Feb-19 17:59 34.205040 -118.487727 273 805ft 0kts
25-Feb-19 18:00 34.205040 -118.487727 273 805ft 0kts
25-Feb-19 18:01 34.205040 -118.487727 273 805ft 0kts
25-Feb-19 18:02 34.205040 -118.487727 273 805ft 0kts
25-Feb-19 18:03 34.205040 -118.487727 273 805ft 0kts
25-Feb-19 18:04 34.205040 -118.487727 273 805ft 0kts
25-Feb-19 18:05 34.205040 -118.487727 273 805ft 0kts
25-Feb-19 18:06 34.205040 -118.487727 273 805ft 0kts
25-Feb-19 18:07 34.205040 -118.487727 273 805ft 0kts
25-Feb-19 18:08 34.205040 -118.487727 273 805ft 0kts
25-Feb-19 18:09 34.205040 -118.487727 273 805ft 0kts
25-Feb-19 18:10 34.205040 -118.487727 273 805ft 0kts
25-Feb-19 18:11 34.206162 -118.488324 4 805ft 7kts
25-Feb-19 18:12 34.209253 -118.488287 355 805ft 12kts
25-Feb-19 18:13 34.212043 -118.488550 356 805ft 8kts
25-Feb-19 18:14 34.215422 -118.488898 350 805ft 12kts
25-Feb-19 18:15 34.218440 -118.489455 354 805ft 9kts
25-Feb-19 18:16 34.218678 -118.489491 347 805ft 0kts
25-Feb-19 18:17 34.218678 -118.489491 347 805ft 0kts
25-Feb-19 18:18 34.218678 -118.489491 347 805ft 0kts
25-Feb-19 18:19 34.218850 -118.491075 265 805ft 7kts
25-Feb-19 18:20 34.209028 -118.490436 176 1048ft 107kts
25-Feb-19 18:21 34.177867 -118.478586 123 3092ft 133kts
25-Feb-19 18:22 34.157801 -118.434347 122 3993ft 180kts
25-Feb-19 18:23 34.174825 -118.385058 352 4761ft 208kts
25-Feb-19 18:24 34.222518 -118.390210 351 8011ft 146kts
25-Feb-19 18:25 34.270939 -118.394144 352 9050ft 227kts
25-Feb-19 18:26 34.327170 -118.370086 88 8965ft 218kts
25-Feb-19 18:27 34.292620 -118.340725 192 9016ft 166kts
25-Feb-19 18:28 34.244002 -118.320590 158 9038ft 220kts
25-Feb-19 18:29 34.183316 -118.285389 157 9000ft 247kts
25-Feb-19 18:30 34.122965 -118.250437 157 8998ft 236kts
25-Feb-19 18:31 34.063820 -118.216239 157 9002ft 234kts
25-Feb-19 18:32 34.005291 -118.182446 157 9006ft 232kts
25-Feb-19 18:33 33.944527 -118.176032 181 7636ft 217kts
25-Feb-19 18:34 33.886816 -118.174874 181 7000ft 206kts
25-Feb-19 18:36 33.828455 -118.173737 181 6998ft 213kts
25-Feb-19 18:37 33.768322 -118.172565 181 6995ft 216kts
25-Feb-19 18:38 33.707976 -118.171341 181 6994ft 217kts
25-Feb-19 18:39 33.652586 -118.154090 113 6990ft 228kts
25-Feb-19 18:40 33.667480 -118.082969 71 5795ft 220kts
25-Feb-19 18:41 33.687904 -118.014458 71 3641ft 215kts
25-Feb-19 18:42 33.707777 -117.947557 71 2999ft 215kts
25-Feb-19 18:43 33.744084 -117.893748 26 3004ft 221kts
25-Feb-19 18:44 33.784087 -117.851529 84 3014ft 135kts
25-Feb-19 18:45 33.761512 -117.830912 163 3002ft 125kts
25-Feb-19 18:46 33.730005 -117.832992 214 2294ft 121kts
25-Feb-19 18:47 33.707553 -117.848627 207 792ft 87kts
25-Feb-19 18:48 33.685695 -117.862457 208 199ft 82kts
25-Feb-19 18:49 33.674835 -117.868633 161 59ft 8kts
25-Feb-19 18:50 33.674445 -117.868480 158 59ft 0kts
25-Feb-19 18:51 33.673351 -117.866995 203 59ft 6kts
25-Feb-19 18:52 33.671953 -117.867407 112 59ft 8kts
25-Feb-19 18:53 33.672133 -117.867032 298 59ft 0kts
25-Feb-19 18:54 33.672133 -117.867032 298 59ft 0kts
25-Feb-19 18:55 33.672133 -117.867032 298 59ft 0kts
25-Feb-19 18:55 33.672133 -117.867032 298 59ft 0kts
25-Feb-19 18:56 33.672133 -117.867032 298 59ft 0kts
25-Feb-19 18:57 33.672133 -117.867032 298 59ft 0kts

Navigation Log

Ident Type
Flight plan parsing failed, navigation log unavailable